Time;durP1;ratioP1;P1;durP2;ratioP2;P2;SDS_P1;SDS_P2;PMS_P1;PMS_P2;Temp;Humidity;BMP_temperature;BMP_pressure;BME280_temperature;BME280_humidity;BME280_pressure;Samples;Min_cycle;Max_cycle;Signal;HPM_P1;HPM_P2
2022/01/22 00:01:20;;;;;;;16.55;8.03;;;;;;;-2.40;100.00;98898.39;1732158;82;21064;-72
2022/01/22 00:03:46;;;;;;;16.62;7.37;;;;;;;-2.43;100.00;98891.97;1753110;81;21041;-72
2022/01/22 00:06:14;;;;;;;18.95;8.23;;;;;;;-2.48;100.00;98894.16;1753467;80;21096;-73
2022/01/22 00:08:40;;;;;;;18.25;8.53;;;;;;;-2.54;100.00;98889.86;1758878;81;21102;-72
2022/01/22 00:11:07;;;;;;;15.55;7.47;;;;;;;-2.54;100.00;98901.02;1732057;82;21499;-72
2022/01/22 00:16:20;;;;;;;16.40;8.08;;;;;;;-2.56;100.00;98894.16;1732497;82;20996;-72
2022/01/22 00:18:48;;;;;;;19.95;7.97;;;;;;;-2.58;100.00;98901.92;1732090;82;21047;-72
2022/01/22 00:21:14;;;;;;;15.65;8.18;;;;;;;-2.58;100.00;98901.92;1732240;82;21073;-73
2022/01/22 00:23:48;;;;;;;13.58;7.33;;;;;;;-2.56;100.00;98904.47;1732569;81;21048;-72
2022/01/22 00:26:09;;;;;;;12.23;6.90;;;;;;;-2.56;100.00;98901.89;1731237;82;21339;-71
2022/01/22 00:28:35;;;;;;;17.45;8.88;;;;;;;-2.57;100.00;98902.77;1732746;82;21069;-72
2022/01/22 00:31:02;;;;;;;16.50;8.90;;;;;;;-2.61;100.00;98903.64;1732227;82;21154;-73
2022/01/22 00:33:28;;;;;;;16.35;8.68;;;;;;;-2.62;100.00;98913.10;1732530;82;21028;-73
2022/01/22 00:35:55;;;;;;;16.32;7.22;;;;;;;-2.60;100.00;98901.48;1732173;82;21053;-73
2022/01/22 00:38:23;;;;;;;18.60;8.05;;;;;;;-2.61;100.00;98897.20;1751269;81;21061;-73
2022/01/22 00:40:51;;;;;;;19.07;8.35;;;;;;;-2.60;100.00;98898.49;1762262;81;21330;-75
2022/01/22 00:43:18;;;;;;;18.42;8.70;;;;;;;-2.59;100.00;98897.61;1762423;81;21188;-75
2022/01/22 00:45:45;;;;;;;21.40;8.38;;;;;;;-2.54;100.00;98900.17;1762541;81;21521;-76
2022/01/22 00:48:11;;;;;;;20.37;7.22;;;;;;;-2.50;100.00;98895.87;1762456;80;21053;-76
2022/01/22 00:50:38;;;;;;;14.78;6.67;;;;;;;-2.47;100.00;98897.99;1762412;81;21542;-75
2022/01/22 00:53:05;;;;;;;14.60;6.53;;;;;;;-2.45;100.00;98900.13;1762438;80;21037;-74
2022/01/22 00:55:33;;;;;;;15.00;6.33;;;;;;;-2.41;100.00;98895.40;1762625;80;21121;-75
2022/01/22 00:58:00;;;;;;;12.90;6.20;;;;;;;-2.40;100.00;98894.52;1762761;81;21512;-75
2022/01/22 01:00:26;;;;;;;13.28;6.40;;;;;;;-2.40;100.00;98894.52;1762763;81;21077;-75
2022/01/22 01:02:53;;;;;;;11.97;5.78;;;;;;;-2.37;100.00;98891.06;1762789;81;21104;-75
2022/01/22 01:05:19;;;;;;;14.85;6.08;;;;;;;-2.37;100.00;98890.66;1762718;81;21073;-74
2022/01/22 01:07:46;;;;;;;10.53;5.05;;;;;;;-2.34;100.00;98897.52;1736903;81;21132;-75
2022/01/22 01:10:16;;;;;;;12.13;5.30;;;;;;;-2.33;100.00;98892.77;1736919;81;21045;-75
2022/01/22 01:12:43;;;;;;;12.25;5.35;;;;;;;-2.32;100.00;98892.78;1763004;80;21022;-77
2022/01/22 01:15:37;;;;;;;9.80;5.37;;;;;;;-2.32;100.00;98894.06;1762921;81;21005;-76
2022/01/22 01:34:16;;;;;;;9.15;5.58;;;;;;;-2.59;100.00;98903.20;1737021;82;21505;-74
2022/01/22 01:36:44;;;;;;;10.37;5.80;;;;;;;-2.62;100.00;98906.66;1736904;82;21088;-73
2022/01/22 01:39:17;;;;;;;9.68;5.78;;;;;;;-2.63;100.00;98906.66;1711758;82;21546;-74
2022/01/22 01:44:11;;;;;;;13.35;5.70;;;;;;;-2.68;100.00;98905.38;1713299;82;21118;-74
2022/01/22 01:47:00;;;;;;;14.18;5.75;;;;;;;-2.66;100.00;98910.54;1736349;82;21147;-75
2022/01/22 01:49:30;;;;;;;11.50;6.05;;;;;;;-2.69;100.00;98915.68;1736674;82;21545;-75
2022/01/22 01:52:00;;;;;;;11.53;5.47;;;;;;;-2.71;100.00;98914.83;1736367;82;21579;-74
2022/01/22 01:55:04;;;;;;;9.35;5.00;;;;;;;-2.70;100.00;98919.14;1711989;82;21049;-74
2022/01/22 01:59:49;;;;;;;14.13;5.80;;;;;;;-2.67;100.00;98919.11;1736922;82;21273;-76
2022/01/22 02:02:18;;;;;;;9.85;5.40;;;;;;;-2.70;100.00;98916.56;1765271;81;21112;-76
2022/01/22 02:04:45;;;;;;;14.18;5.95;;;;;;;-2.71;100.00;98919.58;1764156;81;21050;-75
2022/01/22 02:07:11;;;;;;;11.03;4.92;;;;;;;-2.72;100.00;98926.01;1736612;82;21051;-75
2022/01/22 02:09:41;;;;;;;10.80;5.00;;;;;;;-2.70;100.00;98921.71;1736626;81;21173;-74
2022/01/22 02:12:19;;;;;;;12.90;5.35;;;;;;;-2.72;100.00;98922.99;1736675;82;22182;-75
2022/01/22 02:25:59;;;;;;;11.33;5.25;;;;;;;-2.72;100.00;98920.86;1732448;82;21440;-76
2022/01/22 02:28:26;;;;;;;11.83;5.62;;;;;;;-2.73;100.00;98916.58;1732582;82;21092;-75
2022/01/22 02:30:59;;;;;;;13.45;6.12;;;;;;;-2.70;100.00;98923.00;1732592;82;21041;-76
2022/01/22 02:34:01;;;;;;;10.20;5.05;;;;;;;-2.71;100.00;98926.02;1707598;82;21072;-75
2022/01/22 02:36:28;;;;;;;8.73;5.10;;;;;;;-2.73;100.00;98930.75;1729587;82;21093;-74
2022/01/22 02:41:20;;;;;;;11.00;5.35;;;;;;;-2.80;100.00;98932.05;1732485;82;21620;-72
2022/01/22 02:43:48;;;;;;;9.88;4.45;;;;;;;-2.77;100.00;98937.62;1732385;82;21144;-70
2022/01/22 02:46:20;;;;;;;8.70;4.40;;;;;;;-2.76;100.00;98942.78;1733048;82;21112;-74
2022/01/22 02:48:47;;;;;;;9.33;4.40;;;;;;;-2.75;100.00;98943.19;1732462;82;21033;-75
2022/01/22 02:51:14;;;;;;;10.38;5.22;;;;;;;-2.77;100.00;98946.20;1732687;82;21564;-76
2022/01/22 02:53:42;;;;;;;11.25;4.50;;;;;;;-2.77;100.00;98949.22;1732285;82;21108;-74
2022/01/22 02:56:09;;;;;;;27.37;7.72;;;;;;;-2.77;100.00;98950.06;1732300;82;21604;-75
2022/01/22 02:58:36;;;;;;;8.28;3.98;;;;;;;-2.78;100.00;98944.50;1732418;82;21060;-75
2022/01/22 03:01:03;;;;;;;10.75;4.55;;;;;;;-2.74;100.00;98946.62;1732469;82;21038;-76
2022/01/22 03:03:29;;;;;;;7.72;3.70;;;;;;;-2.76;100.00;98938.91;1732684;82;21628;-74
2022/01/22 03:05:56;;;;;;;11.18;3.95;;;;;;;-2.72;100.00;98938.89;1732307;81;21074;-73
2022/01/22 03:08:27;;;;;;;10.15;4.15;;;;;;;-2.70;100.00;98939.75;1732240;82;21071;-73
2022/01/22 03:10:53;;;;;;;8.40;4.47;;;;;;;-2.66;100.00;98946.19;1731900;82;21102;-75
2022/01/22 03:16:33;;;;;;;8.80;3.87;;;;;;;-2.67;100.00;98935.87;1732187;82;21548;-75
2022/01/22 03:29:31;;;;;;;10.38;4.65;;;;;;;-2.58;100.00;98952.59;1732739;82;21046;-73
2022/01/22 03:31:50;;;;;;;7.25;4.03;;;;;;;-2.59;100.00;98949.17;1730543;82;21037;-73
2022/01/22 03:34:17;;;;;;;10.50;3.90;;;;;;;-2.57;100.00;98951.31;1732580;82;21060;-74
2022/01/22 03:36:44;;;;;;;9.18;4.15;;;;;;;-2.58;100.00;98952.59;1732254;82;21074;-74
2022/01/22 03:39:10;;;;;;;8.30;3.65;;;;;;;-2.57;100.00;98946.59;1732290;82;21026;-73
2022/01/22 03:41:38;;;;;;;7.83;3.35;;;;;;;-2.56;100.00;98956.03;1732171;82;22398;-73
2022/01/22 03:44:06;;;;;;;7.03;3.62;;;;;;;-2.54;100.00;98962.04;1732142;82;21030;-74
2022/01/22 03:46:33;;;;;;;9.35;3.75;;;;;;;-2.54;100.00;98961.61;1732543;82;21041;-73
2022/01/22 03:49:00;;;;;;;7.85;3.83;;;;;;;-2.51;100.00;98961.17;1731833;82;21191;-73
2022/01/22 03:51:26;;;;;;;7.47;3.08;;;;;;;-2.51;100.00;98961.17;1732370;82;21666;-74
2022/01/22 03:53:53;;;;;;;9.18;3.33;;;;;;;-2.49;100.00;98958.16;1732302;82;22095;-77
2022/01/22 03:56:20;;;;;;;7.72;3.15;;;;;;;-2.46;100.00;98969.34;1732237;82;21588;-75
2022/01/22 03:59:06;;;;;;;7.97;3.47;;;;;;;-2.46;100.00;98975.78;1732284;82;21077;-75
2022/01/22 04:02:34;;;;;;;6.95;3.30;;;;;;;-2.45;100.00;98969.75;1732240;82;22034;-75
2022/01/22 04:04:46;;;;;;;8.28;3.50;;;;;;;-2.47;100.00;98974.05;1729873;82;21148;-75
2022/01/22 04:09:56;;;;;;;6.12;3.27;;;;;;;-2.54;100.00;98977.51;1736296;81;21504;-76
2022/01/22 04:12:28;;;;;;;7.83;3.17;;;;;;;-2.62;100.00;98977.98;1731754;82;21807;-75
2022/01/22 04:14:58;;;;;;;10.63;3.62;;;;;;;-2.66;100.00;98967.23;1732014;82;27285;-76
2022/01/22 04:17:37;;;;;;;10.32;3.20;;;;;;;-2.68;100.00;98977.54;1731349;82;21067;-74
2022/01/22 04:25:23;;;;;;;11.55;3.45;;;;;;;-2.65;100.00;98988.27;1732014;81;21093;-76
2022/01/22 04:27:48;;;;;;;8.70;3.15;;;;;;;-2.63;100.00;98994.28;1731991;82;21514;-75
2022/01/22 04:30:15;;;;;;;13.58;4.00;;;;;;;-2.62;100.00;98997.31;1732304;82;21069;-75
2022/01/22 04:32:42;;;;;;;9.40;3.02;;;;;;;-2.64;100.00;98993.88;1747927;81;21142;-77
2022/01/22 04:35:09;;;;;;;7.62;3.55;;;;;;;-2.61;100.00;98999.01;1762421;81;21033;-76
2022/01/22 04:37:35;;;;;;;12.55;3.58;;;;;;;-2.61;100.00;98993.85;1762383;80;21335;-73
2022/01/22 04:40:03;;;;;;;8.70;3.52;;;;;;;-2.64;100.00;98993.44;1743252;81;21819;-78
2022/01/22 04:42:32;;;;;;;11.40;3.30;;;;;;;-2.66;100.00;98998.17;1739987;81;21072;-73
2022/01/22 04:45:04;;;;;;;11.40;3.20;;;;;;;-2.72;100.00;98999.02;1759571;81;21046;-74
2022/01/22 04:54:58;;;;;;;7.42;3.17;;;;;;;-2.77;100.00;98997.73;1732450;81;21045;-72
2022/01/22 04:55:13;;;;;;;7.35;3.08;;;;;;;-2.76;100.00;98990.45;1732263;81;21053;-70
2022/01/22 04:57:46;;;;;;;9.60;3.55;;;;;;;-2.79;100.00;98993.02;1731660;82;22102;-70
2022/01/22 05:00:13;;;;;;;7.87;2.92;;;;;;;-2.79;100.00;98995.59;1731769;82;21060;-70
2022/01/22 05:02:50;;;;;;;8.93;2.70;;;;;;;-2.81;100.00;98989.58;1721400;82;21621;-65
2022/01/22 05:05:24;;;;;;;13.58;3.05;;;;;;;-2.86;100.00;99000.33;1754096;81;21065;-65
2022/01/22 05:07:53;;;;;;;7.17;3.20;;;;;;;-2.90;100.00;98998.61;1761256;81;21510;-65
2022/01/22 05:10:25;;;;;;;9.93;2.87;;;;;;;-2.93;100.00;98996.05;1747291;81;21018;-66
2022/01/22 05:12:53;;;;;;;10.98;3.35;;;;;;;-2.98;100.00;98999.06;1733136;81;21053;-67
2022/01/22 05:15:21;;;;;;;9.40;3.50;;;;;;;-2.98;100.00;99014.52;1753973;81;21042;-66
2022/01/22 05:17:48;;;;;;;7.30;3.27;;;;;;;-3.00;100.00;99005.92;1734010;81;21100;-66
2022/01/22 05:20:30;;;;;;;8.38;3.55;;;;;;;-3.03;100.00;99012.38;1738523;81;21116;-67
2022/01/22 05:23:05;;;;;;;10.30;4.35;;;;;;;-3.03;100.00;99018.81;1731565;82;21156;-65
2022/01/22 05:25:36;;;;;;;19.10;3.45;;;;;;;-3.05;100.00;99015.38;1749615;81;21029;-66
2022/01/22 05:31:07;;;;;;;9.88;3.60;;;;;;;-3.06;100.00;99027.81;1692524;84;21077;-69
2022/01/22 05:36:55;;;;;;;8.30;3.00;;;;;;;-3.06;100.00;99029.09;1736440;81;21045;-66
2022/01/22 05:38:50;;;;;;;8.43;3.10;;;;;;;-3.04;100.00;99035.11;1756344;81;21049;-67
2022/01/22 05:41:16;;;;;;;9.90;3.62;;;;;;;-3.03;100.00;99029.97;1763014;81;21537;-67
2022/01/22 05:43:42;;;;;;;8.53;3.33;;;;;;;-3.02;100.00;99030.82;1762319;81;21064;-68
2022/01/22 05:46:09;;;;;;;8.80;3.75;;;;;;;-2.98;100.00;99027.39;1762626;81;21052;-68
2022/01/22 05:48:37;;;;;;;5.42;2.60;;;;;;;-2.96;100.00;99035.98;1761897;81;22581;-67
2022/01/22 05:51:05;;;;;;;8.88;3.20;;;;;;;-2.93;100.00;99037.70;1757567;81;21085;-68
2022/01/22 06:01:23;;;;;;;9.95;4.08;;;;;;;-2.84;100.00;99049.29;1735098;81;21288;-68
2022/01/22 06:03:58;;;;;;;9.00;4.08;;;;;;;-2.86;100.00;99057.02;1761945;81;21483;-68
2022/01/22 06:06:24;;;;;;;10.40;4.67;;;;;;;-2.84;100.00;99059.16;1762880;81;21584;-68
2022/01/22 06:08:54;;;;;;;9.33;3.62;;;;;;;-2.82;100.00;99063.03;1748895;81;21029;-68
2022/01/22 06:11:25;;;;;;;;;;;;;;;-2.84;100.00;99061.73;1751210;81;21051;-68
2022/01/22 06:13:52;;;;;;;16.67;6.28;;;;;;;-2.82;100.00;99063.89;1741307;81;21141;-68
2022/01/22 06:16:24;;;;;;;30.40;10.35;;;;;;;-2.80;100.00;99064.75;1732949;81;21045;-67
2022/01/22 06:19:11;;;;;;;20.95;6.45;;;;;;;-2.79;100.00;99068.18;1731508;82;21013;-69
2022/01/22 06:21:38;;;;;;;41.23;13.05;;;;;;;-2.76;100.00;99072.91;1732472;82;21529;-67
2022/01/22 06:24:07;;;;;;;46.55;15.85;;;;;;;-2.80;100.00;99064.75;1732353;82;21112;-69
2022/01/22 06:26:35;;;;;;;15.08;4.28;;;;;;;-2.75;100.00;99077.20;1739438;81;21066;-68
2022/01/22 06:29:04;;;;;;;13.95;3.42;;;;;;;-2.75;100.00;99069.47;1748123;81;21013;-68
2022/01/22 06:31:31;;;;;;;11.95;4.00;;;;;;;-2.75;100.00;99066.89;1749620;81;21053;-68
2022/01/22 06:34:00;;;;;;;10.78;4.28;;;;;;;-2.74;100.00;99066.45;1736560;82;21056;-67
2022/01/22 06:36:28;;;;;;;15.83;4.62;;;;;;;-2.70;100.00;99069.90;1679783;84;21062;-69
2022/01/22 06:39:09;;;;;;;11.25;3.98;;;;;;;-2.69;100.00;99070.31;1701321;83;21546;-68
2022/01/22 06:41:44;;;;;;;8.18;3.05;;;;;;;-2.68;100.00;99080.63;1749474;81;21572;-68
2022/01/22 06:44:32;;;;;;;8.60;3.35;;;;;;;-2.65;100.00;99082.34;1690192;84;21145;-68
2022/01/22 06:46:58;;;;;;;27.22;8.73;;;;;;;-2.63;100.00;99083.20;1714014;82;27090;-68
2022/01/22 06:49:43;;;;;;;13.32;4.47;;;;;;;-2.59;100.00;99089.65;1736747;81;21049;-69
2022/01/22 06:52:12;;;;;;;30.72;10.35;;;;;;;-2.54;100.00;99085.34;1739381;81;21090;-67
2022/01/22 06:54:41;;;;;;;11.65;4.40;;;;;;;-2.52;100.00;99094.81;1751608;81;21036;-68
2022/01/22 06:57:08;;;;;;;9.95;4.03;;;;;;;-2.47;100.00;99095.66;1736893;82;21079;-69
2022/01/22 06:59:34;;;;;;;9.88;4.40;;;;;;;-2.45;100.00;99099.09;1721191;81;21100;-69
2022/01/22 07:02:03;;;;;;;19.23;7.42;;;;;;;-2.41;100.00;99101.67;1741014;80;21607;-69
2022/01/22 07:04:31;;;;;;;22.05;8.35;;;;;;;-2.34;100.00;99101.23;1744026;81;21561;-69
2022/01/22 07:07:07;;;;;;;27.58;11.78;;;;;;;-2.29;100.00;99101.23;1718870;80;21117;-69
2022/01/22 07:09:34;;;;;;;19.77;7.80;;;;;;;-2.21;100.00;99104.63;1718117;81;21104;-68
2022/01/22 07:12:04;;;;;;;16.75;5.60;;;;;;;-2.15;100.00;99110.64;1744077;81;21033;-65
2022/01/22 07:14:31;;;;;;;21.07;7.25;;;;;;;-2.10;100.00;99111.92;1745937;79;21032;-64
2022/01/22 07:16:58;;;;;;;39.10;14.00;;;;;;;-2.09;100.00;99111.08;1747048;81;21474;-63
2022/01/22 07:19:38;;;;;;;66.62;21.52;;;;;;;-2.05;100.00;99113.20;1742879;81;21041;-63
2022/01/22 07:22:09;;;;;;;61.08;20.50;;;;;;;-2.05;100.00;99115.34;1745069;81;21037;-63
2022/01/22 07:24:37;;;;;;;78.05;24.43;;;;;;;-2.03;100.00;99107.17;1679764;84;22203;-64
2022/01/22 07:27:06;;;;;;;52.73;18.10;;;;;;;-2.00;100.00;99113.64;1732686;81;21143;-64
2022/01/22 07:29:34;;;;;;;49.63;16.95;;;;;;;-2.00;100.00;99111.05;1733396;82;21478;-66
2022/01/22 07:32:33;;;;;;;44.50;15.25;;;;;;;-1.97;100.00;99112.77;1731785;82;21601;-66
2022/01/22 07:34:57;;;;;;;25.40;9.50;;;;;;;-1.97;100.00;99116.20;1704786;82;21087;-65
2022/01/22 07:37:24;;;;;;;20.88;7.40;;;;;;;-1.96;100.00;99115.31;1698058;82;21078;-65
2022/01/22 07:39:54;;;;;;;17.23;5.10;;;;;;;-1.95;100.00;99123.50;1727569;82;21088;-65
2022/01/22 07:42:22;;;;;;;14.90;6.45;;;;;;;-1.99;100.00;99126.95;1695381;84;21234;-64
2022/01/22 07:44:53;;;;;;;39.40;13.80;;;;;;;-1.98;100.00;99129.09;1741627;81;22091;-64
2022/01/22 07:47:20;;;;;;;42.85;15.13;;;;;;;-1.96;100.00;99126.93;1729663;81;21516;-67
2022/01/22 07:49:47;;;;;;;27.35;9.88;;;;;;;-1.92;100.00;99134.25;1751816;81;22417;-67
2022/01/22 07:52:14;;;;;;;87.37;29.32;;;;;;;-1.86;100.00;99126.91;1751577;81;21037;-66
2022/01/22 07:54:43;;;;;;;28.27;9.75;;;;;;;-1.82;100.00;99138.95;1748398;80;21850;-65
2022/01/22 07:57:09;;;;;;;63.63;21.73;;;;;;;-1.80;100.00;99140.66;1718186;82;21064;-65
2022/01/22 07:59:39;;;;;;;78.17;27.73;;;;;;;-1.76;100.00;99142.81;1729114;81;21088;-66
2022/01/22 08:02:06;;;;;;;72.30;25.55;;;;;;;-1.69;100.00;99140.63;1715319;81;21489;-65
2022/01/22 08:04:33;;;;;;;75.90;27.60;;;;;;;-1.63;100.00;99148.36;1723555;82;21078;-64
2022/01/22 08:07:20;;;;;;;29.65;12.15;;;;;;;-1.56;100.00;99144.89;1723129;82;21250;-65
2022/01/22 08:10:10;;;;;;;32.63;11.68;;;;;;;-1.44;100.00;99150.88;1724061;82;21079;-65
2022/01/22 08:12:48;;;;;;;21.05;7.87;;;;;;;-1.31;100.00;99149.96;1722033;81;21052;-65
2022/01/22 08:15:16;;;;;;;32.35;11.88;;;;;;;-1.27;98.34;99159.39;1725947;82;21548;-64
2022/01/22 08:17:44;;;;;;;52.55;19.82;;;;;;;-1.22;97.58;99156.38;1725091;82;21068;-65
2022/01/22 08:20:17;;;;;;;71.17;25.62;;;;;;;-1.20;97.74;99158.48;1728413;81;21025;-65
2022/01/22 08:22:45;;;;;;;47.20;15.58;;;;;;;-1.16;97.09;99167.95;1705326;82;22187;-65
2022/01/22 08:25:19;;;;;;;121.45;37.85;;;;;;;-1.10;97.65;99171.80;1717682;81;21024;-65
2022/01/22 08:30:35;;;;;;;34.27;12.23;;;;;;;-1.02;96.20;99172.19;1717392;81;21057;-64
2022/01/22 08:33:31;;;;;;;21.20;8.65;;;;;;;-1.09;96.73;99172.22;1712335;81;21539;-67
2022/01/22 08:35:55;;;;;;;22.22;8.50;;;;;;;-1.10;95.37;99174.83;1696809;82;21062;-64
2022/01/22 08:40:30;;;;;;;21.40;8.93;;;;;;;-1.00;95.88;99178.21;1781210;79;22761;-65
2022/01/22 08:42:56;;;;;;;25.40;10.82;;;;;;;-1.04;95.67;99185.55;1741662;81;21512;-64
2022/01/22 08:45:23;;;;;;;20.02;7.72;;;;;;;-0.98;95.68;99186.82;1744628;81;21123;-66
2022/01/22 08:47:50;;;;;;;30.88;11.60;;;;;;;-0.95;94.36;99182.91;1746245;81;21074;-65
2022/01/22 08:50:18;;;;;;;48.40;16.85;;;;;;;-0.99;94.67;99189.84;1732570;81;21050;-64
2022/01/22 08:52:45;;;;;;;70.40;23.32;;;;;;;-1.01;94.29;99191.98;1749804;81;22244;-62
2022/01/22 08:55:11;;;;;;;62.43;22.90;;;;;;;-1.02;94.96;99187.70;1677667;81;21596;-64
2022/01/22 08:57:39;;;;;;;104.35;33.88;;;;;;;-0.99;95.79;99190.25;1669129;85;21156;-64
2022/01/22 09:00:16;;;;;;;123.55;42.53;;;;;;;-0.99;94.85;99192.84;1668141;85;21116;-64
2022/01/22 09:02:48;;;;;;;116.70;39.75;;;;;;;-0.99;95.37;99191.14;1675621;85;21071;-64
2022/01/22 09:05:36;;;;;;;51.75;19.67;;;;;;;-1.00;96.29;99179.06;1664703;85;21072;-68
2022/01/22 09:08:23;;;;;;;31.68;11.88;;;;;;;-0.93;96.11;99182.48;1676445;85;22055;-65
2022/01/22 09:11:08;;;;;;;39.20;14.98;;;;;;;-0.88;94.45;99191.91;1694529;84;21177;-64
2022/01/22 09:13:53;;;;;;;90.83;32.70;;;;;;;-0.81;94.74;99190.14;1682682;84;21052;-64
2022/01/22 09:16:22;;;;;;;151.68;47.90;;;;;;;-0.78;94.78;99187.56;1697907;84;21099;-65
2022/01/22 09:18:50;;;;;;;56.20;20.97;;;;;;;-0.79;94.43;99189.70;1703672;84;21104;-65
2022/01/22 09:21:17;;;;;;;28.62;10.93;;;;;;;-0.84;93.78;99185.01;1684778;83;21148;-64
2022/01/22 09:23:43;;;;;;;55.67;18.90;;;;;;;-0.88;93.02;99196.23;1693002;84;22631;-65
2022/01/22 09:26:14;;;;;;;;;;;;;;;-1.00;93.25;99197.59;1680139;84;21152;-65
2022/01/22 09:28:43;;;;;;;12.33;5.10;;;;;;;-1.12;94.16;99198.08;1690810;84;20205;-65
2022/01/22 09:31:09;;;;;;;11.30;4.87;;;;;;;-1.23;95.26;99206.75;1682475;84;21096;-63
2022/01/22 09:33:36;;;;;;;12.88;4.50;;;;;;;-1.26;95.66;99210.20;1682584;84;21183;-63
2022/01/22 09:36:06;;;;;;;8.70;3.77;;;;;;;-1.27;95.31;99211.05;1686862;84;21861;-64
2022/01/22 09:38:36;;;;;;;8.43;4.10;;;;;;;-1.28;96.18;99213.22;1680512;84;21064;-65
2022/01/22 09:41:05;;;;;;;8.40;3.05;;;;;;;-1.25;95.91;99205.45;1650420;84;21108;-63
2022/01/22 09:43:46;;;;;;;8.15;3.40;;;;;;;-1.16;95.48;99205.41;1673435;82;21077;-62
2022/01/22 09:46:31;;;;;;;9.80;4.70;;;;;;;-1.12;95.61;99211.00;1704338;82;21121;-67
2022/01/22 09:49:02;;;;;;;10.23;4.65;;;;;;;-1.08;95.57;99201.08;1703486;82;21147;-66
2022/01/22 09:51:39;;;;;;;12.35;4.75;;;;;;;-0.99;95.62;99209.64;1711365;82;21604;-65
2022/01/22 09:54:24;;;;;;;13.15;5.53;;;;;;;-0.81;95.19;99209.53;1715374;82;21062;-65
2022/01/22 09:57:02;;;;;;;14.93;5.87;;;;;;;-0.61;92.83;99209.86;1707406;82;20999;-64
2022/01/22 09:59:33;;;;;;;12.88;4.55;;;;;;;-0.49;94.06;99213.65;1681690;82;21542;-64
2022/01/22 10:02:20;;;;;;;12.18;5.53;;;;;;;-0.25;93.27;99213.48;1715044;82;21175;-64
2022/01/22 10:04:50;;;;;;;10.28;4.90;;;;;;;-0.02;92.73;99213.73;1711018;82;21584;-65
2022/01/22 10:07:27;;;;;;;16.50;5.53;;;;;;;0.17;90.28;99214.41;1710543;82;21080;-63
2022/01/22 10:10:13;;;;;;;12.13;4.97;;;;;;;0.38;90.40;99214.19;1708414;82;21427;-65
2022/01/22 10:12:48;;;;;;;12.93;5.00;;;;;;;0.59;89.99;99207.91;1712061;82;21077;-67
2022/01/22 10:15:19;;;;;;;13.65;4.92;;;;;;;0.68;87.64;99206.09;1720088;82;21109;-63
2022/01/22 10:17:55;;;;;;;15.38;5.50;;;;;;;0.51;85.62;99208.89;1703738;84;21049;-64
2022/01/22 10:20:32;;;;;;;23.38;8.63;;;;;;;0.33;86.66;99218.56;1713045;82;21701;-63
2022/01/22 10:23:08;;;;;;;16.32;7.78;;;;;;;0.20;87.06;99214.37;1703646;84;21015;-65
2022/01/22 10:25:43;;;;;;;21.15;8.75;;;;;;;0.18;87.70;99215.70;1670163;85;21148;-65
2022/01/22 10:28:17;;;;;;;53.98;21.48;;;;;;;0.39;88.33;99215.03;1707239;82;21546;-65
2022/01/22 10:30:44;;;;;;;56.40;22.17;;;;;;;0.53;85.18;99216.19;1712231;82;21054;-65
2022/01/22 10:33:36;;;;;;;50.52;18.45;;;;;;;0.60;86.75;99216.56;1715127;82;21606;-65
2022/01/22 10:36:15;;;;;;;93.15;34.27;;;;;;;0.71;84.62;99224.19;1665540;82;21019;-65
2022/01/22 10:38:52;;;;;;;24.20;9.95;;;;;;;0.62;84.73;99214.38;1653686;85;21037;-66
2022/01/22 10:41:41;;;;;;;21.50;9.70;;;;;;;0.54;81.33;99210.99;1679255;84;21100;-65
2022/01/22 10:44:14;;;;;;;12.95;6.58;;;;;;;0.53;82.15;99202.81;1682821;84;21086;-64
2022/01/22 10:49:25;;;;;;;42.95;14.60;;;;;;;0.93;81.75;99211.40;1679530;84;21085;-65
2022/01/22 10:52:00;;;;;;;75.90;28.95;;;;;;;1.12;81.04;99210.71;1682335;84;21084;-66
2022/01/22 10:54:35;;;;;;;97.08;35.60;;;;;;;1.27;79.85;99214.85;1672533;84;22549;-63
2022/01/22 10:57:15;;;;;;;104.63;38.17;;;;;;;1.38;80.80;99209.08;1667514;86;21109;-65
2022/01/22 10:59:51;;;;;;;78.50;30.50;;;;;;;1.33;80.52;99204.37;1690072;84;21063;-65
2022/01/22 11:02:18;;;;;;;34.75;11.97;;;;;;;1.13;80.72;99207.27;1689876;84;22323;-65
2022/01/22 11:04:46;;;;;;;28.32;10.75;;;;;;;1.16;78.50;99211.55;1663709;84;21107;-65
2022/01/22 11:07:21;;;;;;;21.50;8.65;;;;;;;1.30;78.53;99212.65;1718518;83;21578;-65
2022/01/22 11:09:49;;;;;;;15.23;6.35;;;;;;;1.35;77.31;99211.69;1708324;83;21095;-65
2022/01/22 11:12:16;;;;;;;11.30;5.58;;;;;;;1.18;76.06;99209.79;1662122;86;21146;-65
2022/01/22 11:14:43;;;;;;;19.67;7.72;;;;;;;1.03;77.82;99215.58;1666447;84;21060;-65
2022/01/22 11:17:12;;;;;;;52.20;20.80;;;;;;;0.97;78.08;99210.94;1718563;83;21099;-65
2022/01/22 11:19:45;;;;;;;26.87;10.72;;;;;;;1.02;80.41;99220.80;1669428;84;21709;-64
2022/01/22 11:22:14;;;;;;;105.65;39.15;;;;;;;0.96;79.45;99219.12;1689350;84;21096;-65
2022/01/22 11:24:46;;;;;;;50.58;19.12;;;;;;;0.84;81.49;99228.36;1667381;84;21060;-65
2022/01/22 11:27:18;;;;;;;112.95;42.38;;;;;;;0.75;83.27;99236.25;1689397;84;21073;-65
2022/01/22 11:30:04;;;;;;;83.55;30.05;;;;;;;0.67;86.19;99239.34;1706948;84;21629;-65
2022/01/22 11:32:36;;;;;;;24.57;10.28;;;;;;;0.56;88.50;99239.05;1696618;84;21132;-65
2022/01/22 11:35:05;;;;;;;18.30;7.80;;;;;;;0.47;89.01;99245.62;1683504;84;21069;-66
2022/01/22 11:37:48;;;;;;;14.00;5.28;;;;;;;0.34;89.89;99249.20;1693026;84;21120;-65
2022/01/22 11:40:22;;;;;;;21.07;7.72;;;;;;;0.16;91.83;99252.40;1682636;83;21094;-65
2022/01/22 11:43:06;;;;;;;39.30;14.87;;;;;;;-0.11;93.44;99256.07;1696928;83;21118;-65
2022/01/22 11:45:44;;;;;;;48.05;20.43;;;;;;;-0.36;96.16;99273.50;1692578;83;21181;-65
2022/01/22 11:48:24;;;;;;;364.05;130.65;;;;;;;-0.58;97.96;99261.56;1714140;83;21760;-65
2022/01/22 11:50:54;;;;;;;129.63;45.73;;;;;;;-0.86;99.47;99274.63;1697076;83;21079;-65
2022/01/22 11:53:32;;;;;;;40.05;16.12;;;;;;;-0.97;100.00;99276.40;1698489;83;21289;-65
2022/01/22 11:56:24;;;;;;;28.05;9.95;;;;;;;-1.01;100.00;99273.39;1701112;83;21106;-65
2022/01/22 11:59:06;;;;;;;15.05;5.87;;;;;;;-1.08;100.00;99281.19;1717057;83;21187;-65
2022/01/22 12:01:51;;;;;;;127.25;42.73;;;;;;;-1.16;100.00;99285.51;1718309;83;21130;-64
2022/01/22 12:04:21;;;;;;;70.30;24.57;;;;;;;-1.25;100.00;99293.28;1688355;83;21082;-64
2022/01/22 12:07:09;;;;;;;59.20;22.27;;;;;;;-1.33;100.00;99292.47;1715990;83;21614;-65
2022/01/22 12:15:45;;;;;;;5.65;1.40;;;;;;;-1.52;100.00;99306.70;1700549;83;21518;-64
2022/01/22 12:18:16;;;;;;;51.92;18.77;;;;;;;-1.57;100.00;99305.83;1684782;83;21110;-65
2022/01/22 12:23:32;;;;;;;283.68;94.47;;;;;;;-1.62;100.00;99318.33;1689722;83;21713;-65
2022/01/22 12:26:00;;;;;;;10.63;4.12;;;;;;;-1.64;100.00;99319.61;1707045;83;21788;-65
2022/01/22 12:28:45;;;;;;;10.68;3.85;;;;;;;-1.66;100.00;99319.18;1714935;83;21075;-65
2022/01/22 12:31:16;;;;;;;6.37;2.25;;;;;;;-1.72;100.00;99326.52;1714663;83;21114;-64
2022/01/22 12:33:49;;;;;;;4.53;1.75;;;;;;;-1.75;100.00;99323.91;1696229;83;22165;-64
2022/01/22 12:36:23;;;;;;;3.42;1.57;;;;;;;-1.72;100.00;99330.38;1709636;83;21102;-65
2022/01/22 12:39:09;;;;;;;52.73;17.15;;;;;;;-1.69;100.00;99330.37;1695191;83;21954;-65
2022/01/22 12:44:19;;;;;;;340.45;119.55;;;;;;;-1.53;100.00;99337.69;1707282;83;21118;-65
2022/01/22 12:46:41;;;;;;;9.95;4.53;;;;;;;-1.45;100.00;99332.50;1700043;83;21087;-65
2022/01/22 12:49:08;;;;;;;19.07;6.10;;;;;;;-1.36;100.00;99340.23;1696144;83;21094;-66
2022/01/22 12:51:35;;;;;;;24.18;9.43;;;;;;;-1.36;100.00;99346.69;1700922;83;21122;-66
2022/01/22 12:54:03;;;;;;;4.17;1.82;;;;;;;-1.35;100.00;99354.89;1693205;83;21103;-66
2022/01/22 12:59:04;;;;;;;6.15;2.20;;;;;;;-1.41;100.00;99358.32;1682493;83;22207;-65
2022/01/22 13:01:33;;;;;;;16.40;5.80;;;;;;;-1.42;100.00;99357.05;1693269;83;21095;-65
2022/01/22 13:04:02;;;;;;;10.40;4.58;;;;;;;-1.44;100.00;99358.33;1689741;83;21150;-65
2022/01/22 13:06:42;;;;;;;12.25;5.33;;;;;;;-1.46;100.00;99360.49;1712855;83;21127;-66
2022/01/22 13:09:48;;;;;;;117.62;38.60;;;;;;;-1.47;100.00;99366.09;1697777;83;21590;-65
2022/01/22 13:12:16;;;;;;;24.87;9.80;;;;;;;-1.54;100.00;99349.73;1704161;83;21121;-66
2022/01/22 13:14:42;;;;;;;101.60;37.00;;;;;;;-1.59;100.00;99365.64;1700507;83;21131;-65
2022/01/22 13:17:13;;;;;;;76.80;29.67;;;;;;;-1.65;100.00;99366.10;1693792;83;21171;-65
2022/01/22 13:19:41;;;;;;;46.88;15.95;;;;;;;-1.71;100.00;99374.69;1702907;83;21110;-65